Terminal Aerodrome Forecast
Issued by NWS Sterling, VA

Current Version | Previous Version | Graphics & Text | Print | Product List | Glossary On
Versions: 1 2 3 4 5 6 7 8 9 10 11 12 13 14 15 16 17 18 19 20 21 22 23 24 25 26
000
FTUS41 KLWX 150900 AAA
TAFDCA
TAF AMD
KDCA 150905Z 1509/1606 18010KT P6SM -SHRA OVC025
     FM151100 18011G20KT 6SM -SHRA OVC012
      TEMPO 1512/1515 3SM SHRA BKN008
     FM151800 22010G25KT 3SM SHRA OVC025
     FM152100 32016G34KT 6SM -SHRA OVC030
     FM160000 33018G32KT P6SM OVC035
     FM160400 33020G29KT P6SM SCT130=

USA.gov is the U.S. government's official web portal to all federal, state and local government web resources and services.